Hovedside
METAR-TAF:

METAR-TAF

Lufthavner :

Kalmar lufthavn

Kalmar, Sverige

breddegrad: 56-44N, lengdegrad: 016-18E, høyde over havet: 16 m

Gjeldene værobservasjon

Denne rapporten ble laget for 30 minutter siden, klokken 01:20 UTC
Vind 5 kt fra Sør
Temperatur -1°C
Luftfuktighet 100%
Trykk 1004 hPa
Sikt 10 km eller mer

METAR: ESMQ 290120Z AUTO 18005KT 9999 NCD M01/M01 Q1004

Tid: 02:50 (01:50 UTC)

Varsel

Denne rapporten ble laget for 5 timer og 20 minutter siden, klokken 20:30 UTC
Varsel gyldig fra 28. klokken 21 UTC til 28. klokken 23 UTC
Vind 7 kt fra Vest-sørvest
Sikt 10 km eller mer
Brutte skyer i en høyde av 800 ft
Sannsynlighet 40%
fra 28. klokken 21 UTC til 28. klokken 23 UTC
Spredte skyer i en høyde av 900 ft
Brutte skyer i en høyde av 3000 ft

TAF: ESMQ 282030Z 2821/2823 25007KT 9999 BKN008 PROB40 2821/2823 SCT009 BKN030

Værobservasjoner og værvarsel for over 4000 flyplasser (METAR- og TAF-rapporter).

Tilgjengelige stasjoner er representert av de røde og gule prikkene på kartet.

Hold musepekeren over prikken for å se navnet på stasjonen.

Klikk så for å se værobservasjoner og -varsler.

For å forandre kartet kan du klikke på den grønne knappen med svart kryss for å zoome inn, på den grønne knappen med strek for å zoome ut, eller på de grønne pilene for å se tilstøtende kart.


METAR-TAF: